LFOA 221130Z AUTO 23012KT 200V260 CAVOK 10/03 Q1031

ElémentsDécodage
LFOA Station météo située sur l'aérodrome de AVORD
221130Z émis le 22 du mois à 11h30 UTC
AUTO Bulletin édité par un automate
23012KT vent du 230°, 12 noeuds
200V260 vent de direction variable entre 200° et 260°
CAVOK Ceiling And Visibility OK
- Visibilité de 10 Km ou plus
- Pas de nuage au-dessous de 1500m ou au-dessous de l'altitude minimale du secteur la plus élevée (si>1500m) et absence de CB
- pas de temps présent significatif
10/03 température 10°C, point de rosée 03°C
 soit une humidité relative de 62%
Q1031 la pression au niveau de la mer (QNH) est de 1031 hPa